sensor_id;sensor_type;location;lat;lon;timestamp;P1;durP1;ratioP1;P2;durP2;ratioP2
8861;SDS011;4799;50.996;4.754;2023-08-06T00:00:24;4.23;;;2.60;;
8861;SDS011;4799;50.996;4.754;2023-08-06T00:02:49;4.30;;;2.30;;
8861;SDS011;4799;50.996;4.754;2023-08-06T00:05:15;3.67;;;2.27;;
8861;SDS011;4799;50.996;4.754;2023-08-06T00:07:49;4.53;;;2.50;;
8861;SDS011;4799;50.996;4.754;2023-08-06T00:10:15;3.30;;;2.30;;
8861;SDS011;4799;50.996;4.754;2023-08-06T00:12:42;3.83;;;2.40;;
8861;SDS011;4799;50.996;4.754;2023-08-06T00:15:08;4.77;;;2.50;;
8861;SDS011;4799;50.996;4.754;2023-08-06T00:17:34;3.23;;;2.07;;
8861;SDS011;4799;50.996;4.754;2023-08-06T00:20:04;4.90;;;2.40;;
8861;SDS011;4799;50.996;4.754;2023-08-06T00:22:35;4.00;;;2.30;;
8861;SDS011;4799;50.996;4.754;2023-08-06T00:25:02;5.13;;;2.23;;
8861;SDS011;4799;50.996;4.754;2023-08-06T00:27:29;3.63;;;2.20;;
8861;SDS011;4799;50.996;4.754;2023-08-06T00:29:54;4.43;;;2.13;;
8861;SDS011;4799;50.996;4.754;2023-08-06T00:32:20;4.40;;;2.40;;
8861;SDS011;4799;50.996;4.754;2023-08-06T00:34:46;4.33;;;2.10;;
8861;SDS011;4799;50.996;4.754;2023-08-06T00:37:14;3.47;;;2.13;;
8861;SDS011;4799;50.996;4.754;2023-08-06T00:39:41;3.47;;;2.00;;
8861;SDS011;4799;50.996;4.754;2023-08-06T00:42:08;5.87;;;2.30;;
8861;SDS011;4799;50.996;4.754;2023-08-06T00:44:34;5.27;;;2.53;;
8861;SDS011;4799;50.996;4.754;2023-08-06T00:47:00;3.73;;;2.30;;
8861;SDS011;4799;50.996;4.754;2023-08-06T00:49:27;3.57;;;2.10;;
8861;SDS011;4799;50.996;4.754;2023-08-06T00:51:53;4.03;;;2.27;;
8861;SDS011;4799;50.996;4.754;2023-08-06T00:54:19;5.03;;;2.40;;
8861;SDS011;4799;50.996;4.754;2023-08-06T00:56:45;6.33;;;2.73;;
8861;SDS011;4799;50.996;4.754;2023-08-06T00:59:12;5.50;;;2.30;;
8861;SDS011;4799;50.996;4.754;2023-08-06T01:01:38;4.00;;;2.47;;
8861;SDS011;4799;50.996;4.754;2023-08-06T01:04:04;4.57;;;2.60;;
8861;SDS011;4799;50.996;4.754;2023-08-06T01:06:48;4.63;;;2.47;;
8861;SDS011;4799;50.996;4.754;2023-08-06T01:15:35;3.73;;;2.33;;
8861;SDS011;4799;50.996;4.754;2023-08-06T01:17:42;3.83;;;2.40;;
8861;SDS011;4799;50.996;4.754;2023-08-06T01:20:09;3.97;;;2.30;;
8861;SDS011;4799;50.996;4.754;2023-08-06T01:22:35;5.20;;;2.60;;
8861;SDS011;4799;50.996;4.754;2023-08-06T01:25:00;4.43;;;2.43;;
8861;SDS011;4799;50.996;4.754;2023-08-06T01:27:28;5.57;;;2.63;;
8861;SDS011;4799;50.996;4.754;2023-08-06T01:32:38;4.80;;;2.93;;
8861;SDS011;4799;50.996;4.754;2023-08-06T01:35:09;4.50;;;2.60;;
8861;SDS011;4799;50.996;4.754;2023-08-06T01:37:37;6.50;;;2.73;;
8861;SDS011;4799;50.996;4.754;2023-08-06T01:40:09;3.60;;;2.67;;
8861;SDS011;4799;50.996;4.754;2023-08-06T01:42:38;3.57;;;2.70;;
8861;SDS011;4799;50.996;4.754;2023-08-06T01:45:05;6.30;;;3.07;;
8861;SDS011;4799;50.996;4.754;2023-08-06T01:47:32;6.57;;;3.37;;
8861;SDS011;4799;50.996;4.754;2023-08-06T01:49:58;4.20;;;3.20;;
8861;SDS011;4799;50.996;4.754;2023-08-06T01:52:25;4.83;;;2.83;;
8861;SDS011;4799;50.996;4.754;2023-08-06T01:54:51;4.37;;;2.97;;
8861;SDS011;4799;50.996;4.754;2023-08-06T01:57:17;6.77;;;3.03;;
8861;SDS011;4799;50.996;4.754;2023-08-06T01:59:43;3.67;;;2.80;;
8861;SDS011;4799;50.996;4.754;2023-08-06T02:02:08;4.40;;;2.63;;
8861;SDS011;4799;50.996;4.754;2023-08-06T02:04:34;7.23;;;3.77;;
8861;SDS011;4799;50.996;4.754;2023-08-06T02:07:00;3.67;;;3.20;;
8861;SDS011;4799;50.996;4.754;2023-08-06T02:09:25;6.07;;;3.20;;
8861;SDS011;4799;50.996;4.754;2023-08-06T02:11:51;5.00;;;3.10;;
8861;SDS011;4799;50.996;4.754;2023-08-06T02:14:17;5.87;;;3.10;;
8861;SDS011;4799;50.996;4.754;2023-08-06T02:16:43;5.70;;;3.23;;
8861;SDS011;4799;50.996;4.754;2023-08-06T02:19:08;5.53;;;3.77;;
8861;SDS011;4799;50.996;4.754;2023-08-06T02:21:34;5.97;;;4.00;;
8861;SDS011;4799;50.996;4.754;2023-08-06T02:24:00;6.07;;;4.10;;
8861;SDS011;4799;50.996;4.754;2023-08-06T02:26:25;5.77;;;4.00;;
8861;SDS011;4799;50.996;4.754;2023-08-06T02:28:51;8.10;;;4.10;;
8861;SDS011;4799;50.996;4.754;2023-08-06T02:31:17;4.93;;;4.43;;
8861;SDS011;4799;50.996;4.754;2023-08-06T02:33:42;5.67;;;4.47;;
8861;SDS011;4799;50.996;4.754;2023-08-06T02:36:08;7.97;;;5.17;;
8861;SDS011;4799;50.996;4.754;2023-08-06T02:38:34;7.37;;;5.80;;
8861;SDS011;4799;50.996;4.754;2023-08-06T02:41:02;6.97;;;5.07;;
8861;SDS011;4799;50.996;4.754;2023-08-06T02:43:28;5.27;;;4.77;;
8861;SDS011;4799;50.996;4.754;2023-08-06T02:45:57;5.80;;;4.97;;
8861;SDS011;4799;50.996;4.754;2023-08-06T02:48:24;7.07;;;5.37;;
8861;SDS011;4799;50.996;4.754;2023-08-06T02:50:49;9.30;;;5.87;;
8861;SDS011;4799;50.996;4.754;2023-08-06T02:53:15;6.03;;;5.33;;
8861;SDS011;4799;50.996;4.754;2023-08-06T02:55:45;7.20;;;6.10;;
8861;SDS011;4799;50.996;4.754;2023-08-06T02:58:12;6.67;;;5.17;;
8861;SDS011;4799;50.996;4.754;2023-08-06T03:00:42;6.97;;;5.83;;
8861;SDS011;4799;50.996;4.754;2023-08-06T03:03:09;7.27;;;6.20;;
8861;SDS011;4799;50.996;4.754;2023-08-06T03:05:35;8.07;;;6.07;;
8861;SDS011;4799;50.996;4.754;2023-08-06T03:08:00;9.57;;;6.90;;
8861;SDS011;4799;50.996;4.754;2023-08-06T03:10:26;9.13;;;6.40;;
8861;SDS011;4799;50.996;4.754;2023-08-06T03:12:52;7.60;;;6.23;;
8861;SDS011;4799;50.996;4.754;2023-08-06T03:15:18;8.50;;;6.30;;
8861;SDS011;4799;50.996;4.754;2023-08-06T03:17:43;9.20;;;6.50;;
8861;SDS011;4799;50.996;4.754;2023-08-06T03:20:09;8.90;;;7.33;;
8861;SDS011;4799;50.996;4.754;2023-08-06T03:22:35;10.30;;;6.80;;
8861;SDS011;4799;50.996;4.754;2023-08-06T03:25:01;8.97;;;7.43;;
8861;SDS011;4799;50.996;4.754;2023-08-06T03:27:27;10.37;;;8.30;;
8861;SDS011;4799;50.996;4.754;2023-08-06T03:29:53;10.00;;;8.50;;
8861;SDS011;4799;50.996;4.754;2023-08-06T03:32:19;10.10;;;9.10;;
8861;SDS011;4799;50.996;4.754;2023-08-06T03:34:45;11.07;;;8.97;;
8861;SDS011;4799;50.996;4.754;2023-08-06T03:37:11;10.87;;;9.00;;
8861;SDS011;4799;50.996;4.754;2023-08-06T03:39:36;10.93;;;9.10;;
8861;SDS011;4799;50.996;4.754;2023-08-06T03:42:03;11.40;;;9.10;;
8861;SDS011;4799;50.996;4.754;2023-08-06T03:44:28;10.00;;;8.90;;
8861;SDS011;4799;50.996;4.754;2023-08-06T03:46:55;10.23;;;9.30;;
8861;SDS011;4799;50.996;4.754;2023-08-06T03:49:21;9.27;;;8.30;;
8861;SDS011;4799;50.996;4.754;2023-08-06T03:51:47;9.80;;;8.73;;
8861;SDS011;4799;50.996;4.754;2023-08-06T03:54:12;9.57;;;8.57;;
8861;SDS011;4799;50.996;4.754;2023-08-06T03:56:38;8.73;;;7.90;;
8861;SDS011;4799;50.996;4.754;2023-08-06T03:59:04;9.13;;;8.23;;
8861;SDS011;4799;50.996;4.754;2023-08-06T04:01:29;9.57;;;8.10;;
8861;SDS011;4799;50.996;4.754;2023-08-06T04:03:55;10.60;;;7.97;;
8861;SDS011;4799;50.996;4.754;2023-08-06T04:06:21;8.60;;;7.80;;
8861;SDS011;4799;50.996;4.754;2023-08-06T04:08:46;8.70;;;7.80;;
8861;SDS011;4799;50.996;4.754;2023-08-06T04:11:12;9.07;;;8.20;;
8861;SDS011;4799;50.996;4.754;2023-08-06T04:13:38;9.17;;;8.20;;
8861;SDS011;4799;50.996;4.754;2023-08-06T04:16:07;9.50;;;8.53;;
8861;SDS011;4799;50.996;4.754;2023-08-06T04:18:32;9.13;;;8.23;;
8861;SDS011;4799;50.996;4.754;2023-08-06T04:20:58;9.97;;;8.97;;
8861;SDS011;4799;50.996;4.754;2023-08-06T04:23:24;11.30;;;8.97;;
8861;SDS011;4799;50.996;4.754;2023-08-06T04:25:50;10.33;;;9.33;;
8861;SDS011;4799;50.996;4.754;2023-08-06T04:28:15;11.30;;;9.30;;
8861;SDS011;4799;50.996;4.754;2023-08-06T04:30:41;10.97;;;9.20;;
8861;SDS011;4799;50.996;4.754;2023-08-06T04:33:07;12.00;;;9.00;;
8861;SDS011;4799;50.996;4.754;2023-08-06T04:35:32;19.77;;;10.20;;
8861;SDS011;4799;50.996;4.754;2023-08-06T04:37:58;31.93;;;10.87;;
8861;SDS011;4799;50.996;4.754;2023-08-06T04:40:24;11.93;;;7.40;;
8861;SDS011;4799;50.996;4.754;2023-08-06T04:42:49;6.80;;;4.63;;
8861;SDS011;4799;50.996;4.754;2023-08-06T04:45:15;6.87;;;4.07;;
8861;SDS011;4799;50.996;4.754;2023-08-06T04:47:41;10.47;;;3.50;;
8861;SDS011;4799;50.996;4.754;2023-08-06T04:50:07;14.47;;;2.80;;
8861;SDS011;4799;50.996;4.754;2023-08-06T04:52:33;5.30;;;2.20;;
8861;SDS011;4799;50.996;4.754;2023-08-06T04:54:59;8.67;;;2.80;;
8861;SDS011;4799;50.996;4.754;2023-08-06T04:57:24;6.77;;;2.30;;
8861;SDS011;4799;50.996;4.754;2023-08-06T04:59:50;4.23;;;1.97;;
8861;SDS011;4799;50.996;4.754;2023-08-06T05:02:16;4.23;;;2.07;;
8861;SDS011;4799;50.996;4.754;2023-08-06T05:04:42;2.87;;;1.97;;
8861;SDS011;4799;50.996;4.754;2023-08-06T05:07:07;5.50;;;2.30;;
8861;SDS011;4799;50.996;4.754;2023-08-06T05:09:33;3.80;;;2.60;;
8861;SDS011;4799;50.996;4.754;2023-08-06T05:12:03;4.17;;;3.33;;
8861;SDS011;4799;50.996;4.754;2023-08-06T05:14:29;4.83;;;3.60;;
8861;SDS011;4799;50.996;4.754;2023-08-06T05:16:55;5.77;;;5.27;;
8861;SDS011;4799;50.996;4.754;2023-08-06T05:19:20;6.73;;;6.13;;
8861;SDS011;4799;50.996;4.754;2023-08-06T05:21:46;9.23;;;7.67;;
8861;SDS011;4799;50.996;4.754;2023-08-06T05:24:12;9.93;;;9.03;;
8861;SDS011;4799;50.996;4.754;2023-08-06T05:26:37;11.03;;;9.93;;
8861;SDS011;4799;50.996;4.754;2023-08-06T05:29:03;11.90;;;10.77;;
8861;SDS011;4799;50.996;4.754;2023-08-06T05:31:29;14.97;;;12.50;;
8861;SDS011;4799;50.996;4.754;2023-08-06T05:33:55;14.60;;;12.10;;
8861;SDS011;4799;50.996;4.754;2023-08-06T05:36:20;15.80;;;13.13;;
8861;SDS011;4799;50.996;4.754;2023-08-06T05:38:46;13.97;;;12.67;;
8861;SDS011;4799;50.996;4.754;2023-08-06T05:41:12;15.13;;;13.37;;
8861;SDS011;4799;50.996;4.754;2023-08-06T05:43:38;16.27;;;13.07;;
8861;SDS011;4799;50.996;4.754;2023-08-06T05:46:04;18.00;;;14.10;;
8861;SDS011;4799;50.996;4.754;2023-08-06T05:48:30;14.37;;;11.87;;
8861;SDS011;4799;50.996;4.754;2023-08-06T05:50:56;12.07;;;8.77;;
8861;SDS011;4799;50.996;4.754;2023-08-06T05:53:23;17.67;;;11.23;;
8861;SDS011;4799;50.996;4.754;2023-08-06T05:55:49;14.90;;;10.10;;
8861;SDS011;4799;50.996;4.754;2023-08-06T05:58:15;12.00;;;9.40;;
8861;SDS011;4799;50.996;4.754;2023-08-06T06:00:41;15.90;;;7.63;;
8861;SDS011;4799;50.996;4.754;2023-08-06T06:03:07;11.60;;;7.70;;
8861;SDS011;4799;50.996;4.754;2023-08-06T06:05:32;14.03;;;8.63;;
8861;SDS011;4799;50.996;4.754;2023-08-06T06:07:58;10.90;;;8.13;;
8861;SDS011;4799;50.996;4.754;2023-08-06T06:10:24;13.20;;;8.70;;
8861;SDS011;4799;50.996;4.754;2023-08-06T06:12:49;12.57;;;7.63;;
8861;SDS011;4799;50.996;4.754;2023-08-06T06:15:15;15.50;;;9.13;;
8861;SDS011;4799;50.996;4.754;2023-08-06T06:17:41;12.00;;;8.23;;
8861;SDS011;4799;50.996;4.754;2023-08-06T06:20:07;15.10;;;7.93;;
8861;SDS011;4799;50.996;4.754;2023-08-06T06:22:33;12.93;;;8.70;;
8861;SDS011;4799;50.996;4.754;2023-08-06T06:24:58;12.87;;;8.53;;
8861;SDS011;4799;50.996;4.754;2023-08-06T06:27:24;12.60;;;8.97;;
8861;SDS011;4799;50.996;4.754;2023-08-06T06:29:50;14.17;;;9.10;;
8861;SDS011;4799;50.996;4.754;2023-08-06T06:32:17;14.20;;;9.17;;
8861;SDS011;4799;50.996;4.754;2023-08-06T06:34:43;19.57;;;10.13;;
8861;SDS011;4799;50.996;4.754;2023-08-06T06:37:08;18.80;;;11.30;;
8861;SDS011;4799;50.996;4.754;2023-08-06T06:39:34;16.43;;;10.80;;
8861;SDS011;4799;50.996;4.754;2023-08-06T06:42:00;16.60;;;10.50;;
8861;SDS011;4799;50.996;4.754;2023-08-06T06:44:25;16.50;;;10.17;;
8861;SDS011;4799;50.996;4.754;2023-08-06T06:46:51;15.90;;;9.17;;
8861;SDS011;4799;50.996;4.754;2023-08-06T06:49:17;12.93;;;8.67;;
8861;SDS011;4799;50.996;4.754;2023-08-06T06:51:42;13.10;;;7.80;;
8861;SDS011;4799;50.996;4.754;2023-08-06T06:54:08;13.03;;;6.87;;
8861;SDS011;4799;50.996;4.754;2023-08-06T06:56:34;12.20;;;6.80;;
8861;SDS011;4799;50.996;4.754;2023-08-06T06:59:00;14.73;;;8.20;;
8861;SDS011;4799;50.996;4.754;2023-08-06T07:01:25;12.13;;;7.30;;
8861;SDS011;4799;50.996;4.754;2023-08-06T07:03:51;14.13;;;7.90;;
8861;SDS011;4799;50.996;4.754;2023-08-06T07:06:17;11.50;;;6.47;;
8861;SDS011;4799;50.996;4.754;2023-08-06T07:08:43;11.40;;;7.20;;
8861;SDS011;4799;50.996;4.754;2023-08-06T07:11:09;15.83;;;7.17;;
8861;SDS011;4799;50.996;4.754;2023-08-06T07:13:35;12.80;;;6.80;;
8861;SDS011;4799;50.996;4.754;2023-08-06T07:16:01;11.73;;;6.83;;
8861;SDS011;4799;50.996;4.754;2023-08-06T07:18:27;11.83;;;7.03;;
8861;SDS011;4799;50.996;4.754;2023-08-06T07:20:54;12.97;;;6.53;;
8861;SDS011;4799;50.996;4.754;2023-08-06T07:23:21;12.43;;;6.20;;
8861;SDS011;4799;50.996;4.754;2023-08-06T07:25:48;11.30;;;6.00;;
8861;SDS011;4799;50.996;4.754;2023-08-06T07:28:14;12.87;;;6.00;;
8861;SDS011;4799;50.996;4.754;2023-08-06T07:30:41;11.70;;;6.20;;
8861;SDS011;4799;50.996;4.754;2023-08-06T07:33:07;12.37;;;6.40;;
8861;SDS011;4799;50.996;4.754;2023-08-06T07:35:33;11.57;;;6.10;;
8861;SDS011;4799;50.996;4.754;2023-08-06T07:37:59;12.00;;;5.73;;
8861;SDS011;4799;50.996;4.754;2023-08-06T07:40:25;12.40;;;5.57;;
8861;SDS011;4799;50.996;4.754;2023-08-06T07:42:51;11.03;;;4.50;;
8861;SDS011;4799;50.996;4.754;2023-08-06T07:45:16;10.30;;;4.17;;
8861;SDS011;4799;50.996;4.754;2023-08-06T07:47:42;9.87;;;4.93;;
8861;SDS011;4799;50.996;4.754;2023-08-06T07:50:08;8.00;;;4.10;;
8861;SDS011;4799;50.996;4.754;2023-08-06T07:52:34;8.57;;;4.17;;
8861;SDS011;4799;50.996;4.754;2023-08-06T07:55:00;7.83;;;4.10;;
8861;SDS011;4799;50.996;4.754;2023-08-06T07:57:30;9.53;;;3.83;;
8861;SDS011;4799;50.996;4.754;2023-08-06T07:59:56;9.27;;;3.10;;
8861;SDS011;4799;50.996;4.754;2023-08-06T08:02:22;10.93;;;3.83;;
8861;SDS011;4799;50.996;4.754;2023-08-06T08:04:47;8.83;;;3.03;;
8861;SDS011;4799;50.996;4.754;2023-08-06T08:07:13;8.07;;;2.83;;
8861;SDS011;4799;50.996;4.754;2023-08-06T08:09:39;8.17;;;3.33;;
8861;SDS011;4799;50.996;4.754;2023-08-06T08:12:05;10.43;;;3.10;;
8861;SDS011;4799;50.996;4.754;2023-08-06T08:14:31;10.23;;;2.90;;
8861;SDS011;4799;50.996;4.754;2023-08-06T08:17:02;9.80;;;2.90;;
8861;SDS011;4799;50.996;4.754;2023-08-06T08:19:29;9.33;;;2.90;;
8861;SDS011;4799;50.996;4.754;2023-08-06T08:21:54;9.43;;;2.53;;
8861;SDS011;4799;50.996;4.754;2023-08-06T08:24:21;9.33;;;3.17;;
8861;SDS011;4799;50.996;4.754;2023-08-06T08:26:51;10.43;;;2.80;;
8861;SDS011;4799;50.996;4.754;2023-08-06T08:29:19;7.70;;;2.27;;
8861;SDS011;4799;50.996;4.754;2023-08-06T08:31:49;7.63;;;2.47;;
8861;SDS011;4799;50.996;4.754;2023-08-06T08:34:18;7.97;;;2.60;;
8861;SDS011;4799;50.996;4.754;2023-08-06T08:36:44;10.13;;;2.43;;
8861;SDS011;4799;50.996;4.754;2023-08-06T08:39:12;7.23;;;2.50;;
8861;SDS011;4799;50.996;4.754;2023-08-06T08:41:38;9.80;;;2.33;;
8861;SDS011;4799;50.996;4.754;2023-08-06T08:44:05;8.63;;;2.33;;
8861;SDS011;4799;50.996;4.754;2023-08-06T08:46:34;9.07;;;2.53;;
8861;SDS011;4799;50.996;4.754;2023-08-06T08:49:03;8.77;;;2.50;;
8861;SDS011;4799;50.996;4.754;2023-08-06T08:51:29;7.93;;;2.40;;
8861;SDS011;4799;50.996;4.754;2023-08-06T08:53:56;8.07;;;2.50;;
8861;SDS011;4799;50.996;4.754;2023-08-06T08:56:23;8.07;;;2.33;;
8861;SDS011;4799;50.996;4.754;2023-08-06T08:58:49;10.13;;;2.47;;
8861;SDS011;4799;50.996;4.754;2023-08-06T09:01:16;8.13;;;2.83;;
8861;SDS011;4799;50.996;4.754;2023-08-06T09:03:43;8.00;;;2.67;;
8861;SDS011;4799;50.996;4.754;2023-08-06T09:06:09;6.10;;;2.20;;
8861;SDS011;4799;50.996;4.754;2023-08-06T09:08:39;10.70;;;2.43;;
8861;SDS011;4799;50.996;4.754;2023-08-06T09:11:12;9.77;;;2.47;;
8861;SDS011;4799;50.996;4.754;2023-08-06T09:13:38;8.90;;;2.57;;
8861;SDS011;4799;50.996;4.754;2023-08-06T09:16:04;8.50;;;2.40;;
8861;SDS011;4799;50.996;4.754;2023-08-06T09:18:30;5.27;;;1.93;;
8861;SDS011;4799;50.996;4.754;2023-08-06T09:20:56;7.23;;;3.13;;
8861;SDS011;4799;50.996;4.754;2023-08-06T09:23:29;7.20;;;2.87;;
8861;SDS011;4799;50.996;4.754;2023-08-06T09:25:56;5.53;;;2.60;;
8861;SDS011;4799;50.996;4.754;2023-08-06T09:28:23;6.50;;;2.00;;
8861;SDS011;4799;50.996;4.754;2023-08-06T09:30:49;6.27;;;2.43;;
8861;SDS011;4799;50.996;4.754;2023-08-06T09:33:18;8.30;;;2.80;;
8861;SDS011;4799;50.996;4.754;2023-08-06T09:35:45;7.40;;;3.20;;
8861;SDS011;4799;50.996;4.754;2023-08-06T09:38:12;5.97;;;2.70;;
8861;SDS011;4799;50.996;4.754;2023-08-06T09:40:38;7.67;;;3.00;;
8861;SDS011;4799;50.996;4.754;2023-08-06T09:43:05;9.40;;;3.13;;
8861;SDS011;4799;50.996;4.754;2023-08-06T09:45:34;7.67;;;2.57;;
8861;SDS011;4799;50.996;4.754;2023-08-06T09:48:05;7.90;;;2.60;;
8861;SDS011;4799;50.996;4.754;2023-08-06T09:50:33;7.70;;;3.40;;
8861;SDS011;4799;50.996;4.754;2023-08-06T09:53:03;4.87;;;2.40;;
8861;SDS011;4799;50.996;4.754;2023-08-06T09:55:30;6.70;;;2.93;;
8861;SDS011;4799;50.996;4.754;2023-08-06T09:57:58;9.37;;;3.30;;
8861;SDS011;4799;50.996;4.754;2023-08-06T10:00:24;9.07;;;2.80;;
8861;SDS011;4799;50.996;4.754;2023-08-06T10:02:51;4.60;;;2.40;;
8861;SDS011;4799;50.996;4.754;2023-08-06T10:05:21;7.27;;;1.90;;
8861;SDS011;4799;50.996;4.754;2023-08-06T10:07:47;4.80;;;2.03;;
8861;SDS011;4799;50.996;4.754;2023-08-06T10:10:15;3.83;;;1.60;;
8861;SDS011;4799;50.996;4.754;2023-08-06T10:12:43;4.00;;;1.60;;
8861;SDS011;4799;50.996;4.754;2023-08-06T10:15:14;4.37;;;1.60;;
8861;SDS011;4799;50.996;4.754;2023-08-06T10:17:42;3.73;;;1.53;;
8861;SDS011;4799;50.996;4.754;2023-08-06T10:20:11;4.17;;;1.67;;
8861;SDS011;4799;50.996;4.754;2023-08-06T10:22:37;8.00;;;2.00;;
8861;SDS011;4799;50.996;4.754;2023-08-06T10:25:09;4.60;;;1.53;;
8861;SDS011;4799;50.996;4.754;2023-08-06T10:27:36;7.23;;;1.87;;
8861;SDS011;4799;50.996;4.754;2023-08-06T10:30:22;5.00;;;1.73;;
8861;SDS011;4799;50.996;4.754;2023-08-06T10:32:49;6.97;;;1.77;;
8861;SDS011;4799;50.996;4.754;2023-08-06T10:38:03;8.43;;;2.20;;
8861;SDS011;4799;50.996;4.754;2023-08-06T10:40:37;5.27;;;1.73;;
8861;SDS011;4799;50.996;4.754;2023-08-06T10:43:05;5.50;;;1.70;;
8861;SDS011;4799;50.996;4.754;2023-08-06T10:45:36;8.17;;;1.93;;
8861;SDS011;4799;50.996;4.754;2023-08-06T10:48:03;5.83;;;1.90;;
8861;SDS011;4799;50.996;4.754;2023-08-06T10:50:29;4.70;;;1.77;;
8861;SDS011;4799;50.996;4.754;2023-08-06T10:52:56;7.03;;;1.90;;
8861;SDS011;4799;50.996;4.754;2023-08-06T10:55:23;8.60;;;2.43;;
8861;SDS011;4799;50.996;4.754;2023-08-06T10:57:50;6.87;;;2.03;;
8861;SDS011;4799;50.996;4.754;2023-08-06T11:00:16;6.87;;;2.10;;
8861;SDS011;4799;50.996;4.754;2023-08-06T11:02:42;7.27;;;2.03;;
8861;SDS011;4799;50.996;4.754;2023-08-06T11:05:11;5.93;;;2.40;;
8861;SDS011;4799;50.996;4.754;2023-08-06T11:07:37;6.40;;;1.90;;
8861;SDS011;4799;50.996;4.754;2023-08-06T11:10:08;5.33;;;1.73;;
8861;SDS011;4799;50.996;4.754;2023-08-06T11:12:34;4.10;;;1.53;;
8861;SDS011;4799;50.996;4.754;2023-08-06T11:15:00;4.60;;;1.40;;
8861;SDS011;4799;50.996;4.754;2023-08-06T11:17:27;4.37;;;1.47;;
8861;SDS011;4799;50.996;4.754;2023-08-06T11:19:54;2.87;;;1.40;;
8861;SDS011;4799;50.996;4.754;2023-08-06T11:22:20;4.00;;;1.30;;
8861;SDS011;4799;50.996;4.754;2023-08-06T11:24:47;4.40;;;1.63;;
8861;SDS011;4799;50.996;4.754;2023-08-06T11:27:16;5.57;;;1.50;;
8861;SDS011;4799;50.996;4.754;2023-08-06T11:29:42;5.67;;;1.87;;
8861;SDS011;4799;50.996;4.754;2023-08-06T11:32:09;3.63;;;1.33;;
8861;SDS011;4799;50.996;4.754;2023-08-06T11:34:35;4.07;;;1.57;;
8861;SDS011;4799;50.996;4.754;2023-08-06T11:37:02;7.50;;;2.10;;
8861;SDS011;4799;50.996;4.754;2023-08-06T11:39:35;4.97;;;1.60;;
8861;SDS011;4799;50.996;4.754;2023-08-06T11:42:05;4.57;;;1.77;;
8861;SDS011;4799;50.996;4.754;2023-08-06T11:44:32;4.17;;;1.67;;
8861;SDS011;4799;50.996;4.754;2023-08-06T11:47:01;3.03;;;1.50;;
8861;SDS011;4799;50.996;4.754;2023-08-06T11:49:37;7.70;;;2.73;;
8861;SDS011;4799;50.996;4.754;2023-08-06T11:54:39;5.30;;;1.73;;
8861;SDS011;4799;50.996;4.754;2023-08-06T11:57:05;5.67;;;1.70;;
8861;SDS011;4799;50.996;4.754;2023-08-06T11:59:32;3.50;;;1.97;;
8861;SDS011;4799;50.996;4.754;2023-08-06T12:01:57;3.70;;;1.50;;
8861;SDS011;4799;50.996;4.754;2023-08-06T12:04:26;3.80;;;1.70;;
8861;SDS011;4799;50.996;4.754;2023-08-06T12:06:52;4.90;;;1.87;;
8861;SDS011;4799;50.996;4.754;2023-08-06T12:09:18;5.07;;;2.10;;
8861;SDS011;4799;50.996;4.754;2023-08-06T12:11:44;5.13;;;2.10;;
8861;SDS011;4799;50.996;4.754;2023-08-06T12:14:10;6.07;;;2.10;;
8861;SDS011;4799;50.996;4.754;2023-08-06T12:16:35;5.07;;;1.80;;
8861;SDS011;4799;50.996;4.754;2023-08-06T12:19:01;4.33;;;2.00;;
8861;SDS011;4799;50.996;4.754;2023-08-06T12:21:27;5.10;;;1.77;;
8861;SDS011;4799;50.996;4.754;2023-08-06T12:23:52;6.57;;;2.40;;
8861;SDS011;4799;50.996;4.754;2023-08-06T12:26:18;5.77;;;2.10;;
8861;SDS011;4799;50.996;4.754;2023-08-06T12:28:44;6.17;;;2.27;;
8861;SDS011;4799;50.996;4.754;2023-08-06T12:31:09;7.47;;;2.57;;
8861;SDS011;4799;50.996;4.754;2023-08-06T12:33:35;7.43;;;2.73;;
8861;SDS011;4799;50.996;4.754;2023-08-06T12:36:01;7.60;;;2.90;;
8861;SDS011;4799;50.996;4.754;2023-08-06T12:38:26;8.70;;;2.90;;
8861;SDS011;4799;50.996;4.754;2023-08-06T12:40:52;7.97;;;3.43;;
8861;SDS011;4799;50.996;4.754;2023-08-06T12:43:18;5.53;;;2.50;;
8861;SDS011;4799;50.996;4.754;2023-08-06T12:45:43;9.77;;;3.20;;
8861;SDS011;4799;50.996;4.754;2023-08-06T12:48:09;7.30;;;2.93;;
8861;SDS011;4799;50.996;4.754;2023-08-06T12:50:35;7.37;;;2.80;;
8861;SDS011;4799;50.996;4.754;2023-08-06T12:53:01;8.93;;;3.03;;
8861;SDS011;4799;50.996;4.754;2023-08-06T12:55:27;9.00;;;3.30;;
8861;SDS011;4799;50.996;4.754;2023-08-06T12:57:53;7.90;;;3.10;;
8861;SDS011;4799;50.996;4.754;2023-08-06T13:00:18;11.43;;;3.30;;
8861;SDS011;4799;50.996;4.754;2023-08-06T13:02:44;7.50;;;2.60;;
8861;SDS011;4799;50.996;4.754;2023-08-06T13:05:10;6.40;;;2.50;;
8861;SDS011;4799;50.996;4.754;2023-08-06T13:07:35;9.40;;;2.90;;
8861;SDS011;4799;50.996;4.754;2023-08-06T13:10:01;10.97;;;2.90;;
8861;SDS011;4799;50.996;4.754;2023-08-06T13:12:27;8.70;;;2.90;;
8861;SDS011;4799;50.996;4.754;2023-08-06T13:14:52;10.77;;;2.73;;
8861;SDS011;4799;50.996;4.754;2023-08-06T13:17:20;6.37;;;2.00;;
8861;SDS011;4799;50.996;4.754;2023-08-06T13:19:46;7.33;;;2.67;;
8861;SDS011;4799;50.996;4.754;2023-08-06T13:22:11;6.73;;;2.37;;
8861;SDS011;4799;50.996;4.754;2023-08-06T13:24:37;7.90;;;2.57;;
8861;SDS011;4799;50.996;4.754;2023-08-06T13:27:03;7.23;;;2.60;;
8861;SDS011;4799;50.996;4.754;2023-08-06T13:29:29;10.10;;;3.00;;
8861;SDS011;4799;50.996;4.754;2023-08-06T13:31:55;8.23;;;2.83;;
8861;SDS011;4799;50.996;4.754;2023-08-06T13:34:20;7.67;;;2.40;;
8861;SDS011;4799;50.996;4.754;2023-08-06T13:36:46;8.47;;;2.47;;
8861;SDS011;4799;50.996;4.754;2023-08-06T13:39:12;7.87;;;2.47;;
8861;SDS011;4799;50.996;4.754;2023-08-06T13:41:41;6.73;;;2.10;;
8861;SDS011;4799;50.996;4.754;2023-08-06T13:44:07;6.43;;;2.50;;
8861;SDS011;4799;50.996;4.754;2023-08-06T13:46:32;8.10;;;2.60;;
8861;SDS011;4799;50.996;4.754;2023-08-06T13:48:58;7.37;;;2.40;;
8861;SDS011;4799;50.996;4.754;2023-08-06T13:51:24;6.03;;;2.33;;
8861;SDS011;4799;50.996;4.754;2023-08-06T13:53:49;6.37;;;2.00;;
8861;SDS011;4799;50.996;4.754;2023-08-06T13:56:17;5.33;;;2.00;;
8861;SDS011;4799;50.996;4.754;2023-08-06T13:58:43;9.10;;;2.23;;
8861;SDS011;4799;50.996;4.754;2023-08-06T14:01:12;5.93;;;2.33;;
8861;SDS011;4799;50.996;4.754;2023-08-06T14:03:38;7.07;;;1.93;;
8861;SDS011;4799;50.996;4.754;2023-08-06T14:06:04;6.80;;;2.10;;
8861;SDS011;4799;50.996;4.754;2023-08-06T14:08:29;7.03;;;2.17;;
8861;SDS011;4799;50.996;4.754;2023-08-06T14:10:55;5.50;;;2.10;;
8861;SDS011;4799;50.996;4.754;2023-08-06T14:13:21;4.77;;;2.10;;
8861;SDS011;4799;50.996;4.754;2023-08-06T14:15:47;6.70;;;2.10;;
8861;SDS011;4799;50.996;4.754;2023-08-06T14:18:13;6.83;;;2.10;;
8861;SDS011;4799;50.996;4.754;2023-08-06T14:20:40;7.80;;;2.50;;
8861;SDS011;4799;50.996;4.754;2023-08-06T14:23:06;6.47;;;2.10;;
8861;SDS011;4799;50.996;4.754;2023-08-06T14:25:32;8.63;;;2.40;;
8861;SDS011;4799;50.996;4.754;2023-08-06T14:27:58;6.10;;;2.30;;
8861;SDS011;4799;50.996;4.754;2023-08-06T14:30:24;5.57;;;2.20;;
8861;SDS011;4799;50.996;4.754;2023-08-06T14:32:50;5.87;;;2.30;;
8861;SDS011;4799;50.996;4.754;2023-08-06T14:35:15;5.50;;;2.10;;
8861;SDS011;4799;50.996;4.754;2023-08-06T14:37:41;8.90;;;2.97;;
8861;SDS011;4799;50.996;4.754;2023-08-06T14:40:07;4.30;;;1.90;;
8861;SDS011;4799;50.996;4.754;2023-08-06T14:42:33;5.97;;;2.17;;
8861;SDS011;4799;50.996;4.754;2023-08-06T14:44:59;8.70;;;2.70;;
8861;SDS011;4799;50.996;4.754;2023-08-06T14:47:25;5.80;;;2.07;;
8861;SDS011;4799;50.996;4.754;2023-08-06T14:49:50;9.57;;;2.30;;
8861;SDS011;4799;50.996;4.754;2023-08-06T14:52:16;8.13;;;2.30;;
8861;SDS011;4799;50.996;4.754;2023-08-06T14:54:42;7.40;;;2.57;;
8861;SDS011;4799;50.996;4.754;2023-08-06T14:57:09;5.60;;;2.20;;
8861;SDS011;4799;50.996;4.754;2023-08-06T14:59:34;5.60;;;2.13;;
8861;SDS011;4799;50.996;4.754;2023-08-06T15:02:00;10.03;;;2.73;;
8861;SDS011;4799;50.996;4.754;2023-08-06T15:04:26;7.13;;;2.50;;
8861;SDS011;4799;50.996;4.754;2023-08-06T15:06:52;8.73;;;2.50;;
8861;SDS011;4799;50.996;4.754;2023-08-06T15:09:19;4.73;;;2.23;;
8861;SDS011;4799;50.996;4.754;2023-08-06T15:11:46;5.97;;;1.87;;
8861;SDS011;4799;50.996;4.754;2023-08-06T15:14:12;8.40;;;2.10;;
8861;SDS011;4799;50.996;4.754;2023-08-06T15:16:39;6.10;;;2.10;;
8861;SDS011;4799;50.996;4.754;2023-08-06T15:19:05;6.23;;;2.03;;
8861;SDS011;4799;50.996;4.754;2023-08-06T15:21:31;5.80;;;2.03;;